Time;durP1;ratioP1;P1;durP2;ratioP2;P2;SDS_P1;SDS_P2;PMS_P1;PMS_P2;Temp;Humidity;BMP_temperature;BMP_pressure;BME280_temperature;BME280_humidity;BME280_pressure;Samples;Min_cycle;Max_cycle;Signal;HPM_P1;HPM_P2
2022/09/26 00:00:45;;;;;;;4.18;3.20;;;11.00;99.90;;;;;;5138096;27;20031;-34
2022/09/26 00:03:13;;;;;;;3.78;3.40;;;11.00;99.90;;;;;;5146083;27;20038;-32
2022/09/26 00:05:39;;;;;;;5.03;3.20;;;11.10;99.90;;;;;;5139849;27;20031;-33
2022/09/26 00:08:06;;;;;;;5.25;3.20;;;11.00;99.90;;;;;;5142585;27;20359;-32
2022/09/26 00:10:33;;;;;;;4.57;3.55;;;11.00;99.90;;;;;;5134963;27;20039;-32
2022/09/26 00:12:59;;;;;;;4.30;3.20;;;11.00;99.90;;;;;;5143285;27;20049;-34
2022/09/26 00:15:25;;;;;;;5.60;3.40;;;11.00;99.90;;;;;;5141305;27;20479;-34
2022/09/26 00:17:51;;;;;;;3.42;3.13;;;11.00;99.90;;;;;;5134143;27;20050;-32
2022/09/26 00:20:17;;;;;;;7.70;3.55;;;11.00;99.90;;;;;;5136447;27;20404;-33
2022/09/26 00:22:43;;;;;;;3.70;3.40;;;11.00;99.90;;;;;;5137770;27;20080;-32
2022/09/26 00:25:09;;;;;;;3.85;3.35;;;11.00;99.90;;;;;;5146755;27;20043;-34
2022/09/26 00:27:34;;;;;;;4.97;3.42;;;11.00;99.90;;;;;;5144943;27;20045;-33
2022/09/26 00:30:00;;;;;;;6.10;3.50;;;11.00;99.90;;;;;;5145362;27;20435;-33
2022/09/26 00:32:26;;;;;;;6.22;2.88;;;11.00;99.90;;;;;;5140641;27;20047;-33
2022/09/26 00:34:52;;;;;;;5.45;2.95;;;11.00;99.90;;;;;;5124501;27;20031;-32
2022/09/26 00:37:18;;;;;;;6.45;3.17;;;11.00;99.90;;;;;;5145552;27;20118;-32
2022/09/26 00:39:44;;;;;;;5.88;3.17;;;11.00;99.90;;;;;;5144485;27;20031;-33
2022/09/26 00:42:14;;;;;;;3.50;3.03;;;11.00;99.90;;;;;;5131101;27;20035;-32
2022/09/26 00:44:44;;;;;;;3.38;3.08;;;11.00;99.90;;;;;;5128033;27;20042;-32
2022/09/26 00:47:35;;;;;;;6.03;3.10;;;11.00;99.90;;;;;;5143435;27;20053;-33
2022/09/26 00:50:06;;;;;;;4.60;3.05;;;11.00;99.90;;;;;;5133519;27;20085;-33
2022/09/26 00:52:52;;;;;;;5.95;3.15;;;11.00;99.90;;;;;;5143982;27;20037;-32
2022/09/26 00:55:22;;;;;;;7.13;3.47;;;11.00;99.90;;;;;;5138453;27;20365;-34
2022/09/26 00:57:58;;;;;;;3.88;3.00;;;11.00;99.90;;;;;;5121147;27;20130;-33
2022/09/26 01:00:24;;;;;;;5.40;3.60;;;10.90;99.90;;;;;;5140021;27;20038;-33
2022/09/26 01:02:52;;;;;;;5.25;3.45;;;11.00;99.90;;;;;;5142615;27;20392;-34
2022/09/26 01:05:20;;;;;;;7.15;3.50;;;11.00;99.90;;;;;;5149219;27;20034;-33
2022/09/26 01:07:46;;;;;;;4.32;3.30;;;11.00;99.90;;;;;;5120800;27;20039;-36
2022/09/26 01:10:14;;;;;;;3.90;3.25;;;11.00;99.90;;;;;;5124234;27;20124;-32
2022/09/26 01:12:41;;;;;;;7.60;3.40;;;11.00;99.90;;;;;;5144174;27;20099;-32
2022/09/26 01:15:10;;;;;;;7.18;3.50;;;11.00;99.90;;;;;;5134238;27;20036;-33
2022/09/26 01:17:42;;;;;;;4.32;2.83;;;11.00;99.90;;;;;;5129604;27;20066;-32
2022/09/26 01:20:31;;;;;;;6.13;3.30;;;11.00;99.90;;;;;;5132759;27;20038;-34
2022/09/26 01:23:41;;;;;;;6.22;3.20;;;11.00;99.90;;;;;;5136137;27;20088;-34
2022/09/26 01:26:10;;;;;;;7.10;3.10;;;11.00;99.90;;;;;;5135146;27;20057;-33
2022/09/26 01:29:12;;;;;;;3.50;2.85;;;11.00;99.90;;;;;;5137668;27;20473;-34
2022/09/26 01:35:02;;;;;;;6.78;2.80;;;10.90;99.90;;;;;;5133847;27;20043;-35
2022/09/26 01:37:32;;;;;;;5.40;2.83;;;10.90;99.90;;;;;;5136327;27;20035;-33
2022/09/26 01:40:16;;;;;;;5.03;3.33;;;10.90;99.90;;;;;;5146175;27;20499;-34
2022/09/26 01:43:20;;;;;;;3.58;2.88;;;10.90;99.90;;;;;;5130787;27;20041;-32
2022/09/26 01:45:53;;;;;;;6.63;3.20;;;10.90;99.90;;;;;;5132156;27;20038;-35
2022/09/26 01:48:32;;;;;;;5.45;2.95;;;10.90;99.90;;;;;;5142442;27;20117;-32
2022/09/26 01:51:06;;;;;;;7.68;3.60;;;10.90;99.90;;;;;;5125215;27;20042;-33
2022/09/26 01:53:41;;;;;;;5.22;2.92;;;10.90;99.90;;;;;;5133107;27;20126;-32
2022/09/26 01:56:14;;;;;;;5.93;3.97;;;10.90;99.90;;;;;;5127000;27;20085;-34
2022/09/26 01:59:12;;;;;;;3.45;3.15;;;10.90;99.90;;;;;;5134175;27;20035;-33
2022/09/26 02:01:42;;;;;;;4.80;3.45;;;10.90;99.90;;;;;;5125410;27;20628;-32
2022/09/26 02:04:11;;;;;;;6.53;3.20;;;10.90;99.90;;;;;;5133854;27;20461;-33
2022/09/26 02:06:50;;;;;;;6.85;3.53;;;10.90;99.90;;;;;;5120481;27;20039;-32
2022/09/26 02:09:36;;;;;;;4.18;3.33;;;11.00;99.90;;;;;;5136057;27;20039;-33
2022/09/26 02:12:07;;;;;;;5.15;3.30;;;11.00;99.90;;;;;;5138580;27;20040;-33
2022/09/26 02:14:36;;;;;;;8.00;3.28;;;11.00;99.90;;;;;;5134415;27;20396;-35
2022/09/26 02:17:11;;;;;;;5.63;3.30;;;11.00;99.90;;;;;;5143243;27;20039;-33
2022/09/26 02:19:58;;;;;;;6.57;3.60;;;11.10;99.90;;;;;;5123784;27;20035;-32
2022/09/26 02:22:32;;;;;;;4.13;3.60;;;11.10;99.90;;;;;;5138004;27;20046;-32
2022/09/26 02:24:58;;;;;;;7.75;4.03;;;11.10;99.90;;;;;;5131443;27;20046;-32
2022/09/26 02:27:26;;;;;;;6.97;3.90;;;11.10;99.90;;;;;;5144473;27;20085;-35
2022/09/26 02:29:52;;;;;;;6.55;3.63;;;11.10;99.90;;;;;;5133915;27;20381;-33
2022/09/26 02:32:25;;;;;;;5.32;3.78;;;11.10;99.90;;;;;;5144292;27;20071;-32
2022/09/26 02:34:52;;;;;;;6.53;4.03;;;11.10;99.90;;;;;;5135103;27;20028;-33
2022/09/26 02:37:20;;;;;;;5.00;4.07;;;11.10;99.90;;;;;;5137757;27;20273;-32
2022/09/26 02:39:47;;;;;;;5.57;4.13;;;11.10;99.90;;;;;;5138392;27;20027;-33
2022/09/26 02:42:20;;;;;;;4.07;3.58;;;11.10;99.90;;;;;;5137130;27;20042;-34
2022/09/26 02:45:11;;;;;;;6.18;4.15;;;11.10;99.90;;;;;;5139343;27;20058;-32
2022/09/26 02:47:42;;;;;;;8.45;4.60;;;11.20;99.90;;;;;;5125745;27;20121;-31
2022/09/26 02:50:08;;;;;;;8.65;4.32;;;11.20;99.90;;;;;;5143437;27;20083;-33
2022/09/26 02:52:53;;;;;;;10.98;4.43;;;11.20;99.90;;;;;;5134783;27;20038;-32
2022/09/26 02:55:37;;;;;;;4.40;4.00;;;11.20;99.90;;;;;;5119086;27;20081;-32
2022/09/26 02:58:34;;;;;;;7.43;4.22;;;11.20;99.90;;;;;;5125976;27;20082;-33
2022/09/26 03:01:16;;;;;;;5.28;4.63;;;11.20;99.90;;;;;;5124281;27;20286;-32
2022/09/26 03:03:51;;;;;;;6.15;4.30;;;11.20;99.90;;;;;;5124512;27;20038;-34
2022/09/26 03:06:23;;;;;;;7.28;5.00;;;11.20;99.90;;;;;;5123217;27;20514;-35
2022/09/26 03:08:50;;;;;;;8.88;4.57;;;11.20;99.90;;;;;;5138026;27;20117;-33
2022/09/26 03:11:22;;;;;;;7.80;5.20;;;11.10;99.90;;;;;;5127224;27;20040;-32
2022/09/26 03:13:52;;;;;;;7.05;5.25;;;11.20;99.90;;;;;;5142340;27;20493;-33
2022/09/26 03:16:19;;;;;;;6.45;4.70;;;11.10;99.90;;;;;;5135232;27;20433;-33
2022/09/26 03:18:59;;;;;;;8.05;5.32;;;11.10;99.90;;;;;;5138647;27;20035;-34
2022/09/26 03:21:26;;;;;;;7.05;5.00;;;11.10;99.90;;;;;;5140208;27;20043;-33
2022/09/26 03:23:53;;;;;;;7.35;5.05;;;11.10;99.90;;;;;;5139994;27;20097;-32
2022/09/26 03:26:23;;;;;;;6.40;5.40;;;11.10;99.90;;;;;;5139003;27;20034;-31
2022/09/26 03:28:50;;;;;;;8.38;5.68;;;11.10;99.90;;;;;;5137407;27;20043;-33
2022/09/26 03:31:19;;;;;;;8.43;5.90;;;11.10;99.90;;;;;;5146413;27;20042;-33
2022/09/26 03:33:46;;;;;;;8.57;6.10;;;11.00;99.90;;;;;;5141350;27;20040;-32
2022/09/26 03:36:12;;;;;;;8.48;5.97;;;11.00;99.90;;;;;;5144827;27;20053;-33
2022/09/26 03:38:37;;;;;;;8.50;6.97;;;11.00;99.90;;;;;;5133738;27;20031;-32
2022/09/26 03:41:04;;;;;;;7.63;5.88;;;11.00;99.90;;;;;;5144803;27;20031;-33
2022/09/26 03:43:30;;;;;;;11.13;6.57;;;11.00;99.90;;;;;;5134961;27;20031;-34
2022/09/26 03:45:56;;;;;;;7.10;5.80;;;11.00;99.90;;;;;;5144267;27;20392;-34
2022/09/26 03:48:22;;;;;;;8.80;6.88;;;11.00;99.90;;;;;;5138269;27;20038;-33
2022/09/26 03:50:48;;;;;;;11.23;6.28;;;11.00;99.90;;;;;;5144013;27;20037;-35
2022/09/26 03:53:13;;;;;;;7.45;6.65;;;11.00;99.90;;;;;;5138998;27;20085;-31
2022/09/26 03:55:39;;;;;;;11.27;6.72;;;11.00;99.90;;;;;;5126901;27;20061;-34
2022/09/26 03:58:05;;;;;;;8.95;6.93;;;11.00;99.90;;;;;;5135399;27;20080;-32
2022/09/26 04:00:31;;;;;;;10.30;6.65;;;10.90;99.90;;;;;;5140052;27;20027;-33
2022/09/26 04:03:01;;;;;;;8.13;7.20;;;10.90;99.90;;;;;;5148825;27;20035;-34
2022/09/26 04:05:28;;;;;;;8.80;6.38;;;10.90;99.90;;;;;;5140355;27;20074;-32
2022/09/26 04:07:54;;;;;;;8.57;6.90;;;10.90;99.90;;;;;;5136748;27;20064;-35
2022/09/26 04:10:20;;;;;;;8.85;7.03;;;10.90;99.90;;;;;;5146440;27;20046;-32
2022/09/26 04:12:46;;;;;;;9.48;6.80;;;10.90;99.90;;;;;;5141737;27;20060;-34
2022/09/26 04:15:11;;;;;;;10.20;7.32;;;10.90;99.90;;;;;;5149388;27;20034;-33
2022/09/26 04:17:37;;;;;;;8.77;7.53;;;10.90;99.90;;;;;;5136131;27;20042;-31
2022/09/26 04:20:04;;;;;;;10.55;7.95;;;10.90;99.90;;;;;;5147398;27;20042;-32
2022/09/26 04:22:29;;;;;;;10.32;8.68;;;10.90;99.90;;;;;;5147082;27;21628;-33
2022/09/26 04:24:56;;;;;;;9.77;8.25;;;10.90;99.90;;;;;;5143373;27;20050;-33
2022/09/26 04:27:26;;;;;;;10.82;8.90;;;10.90;99.90;;;;;;5131137;27;20039;-31
2022/09/26 04:29:52;;;;;;;9.20;8.07;;;10.90;99.90;;;;;;5141979;27;20361;-32
2022/09/26 04:32:18;;;;;;;15.25;9.75;;;10.90;99.90;;;;;;5140286;27;20037;-32
2022/09/26 04:34:44;;;;;;;10.85;9.15;;;10.90;99.90;;;;;;5130888;27;20047;-33
2022/09/26 04:37:10;;;;;;;10.60;9.27;;;10.90;99.90;;;;;;5146149;27;20038;-33
2022/09/26 04:39:36;;;;;;;10.38;8.95;;;10.90;99.90;;;;;;5143084;27;20031;-34
2022/09/26 04:42:03;;;;;;;12.60;9.25;;;10.80;99.90;;;;;;5136961;27;20042;-33
2022/09/26 04:44:29;;;;;;;12.73;9.38;;;10.80;99.90;;;;;;5142284;27;20039;-34
2022/09/26 04:46:55;;;;;;;14.27;9.07;;;10.80;99.90;;;;;;5131690;27;20397;-32
2022/09/26 04:49:20;;;;;;;11.73;9.95;;;10.80;99.90;;;;;;5138229;27;20023;-32
2022/09/26 04:51:47;;;;;;;11.80;9.68;;;10.80;99.90;;;;;;5131687;27;20038;-33
2022/09/26 04:54:15;;;;;;;11.88;10.48;;;10.80;99.90;;;;;;5133600;27;20027;-33
2022/09/26 04:56:41;;;;;;;11.50;10.30;;;10.80;99.90;;;;;;5144648;27;20388;-33
2022/09/26 04:59:06;;;;;;;12.13;10.23;;;10.80;99.90;;;;;;5136095;27;20039;-34
2022/09/26 05:01:32;;;;;;;12.07;10.18;;;10.80;99.90;;;;;;5137508;27;20027;-35
2022/09/26 05:03:58;;;;;;;12.73;10.52;;;10.80;99.90;;;;;;5142550;27;20418;-31
2022/09/26 05:06:24;;;;;;;14.43;10.13;;;10.80;99.90;;;;;;5128696;27;20506;-35
2022/09/26 05:08:50;;;;;;;12.30;10.20;;;10.80;99.90;;;;;;5130201;27;20039;-32
2022/09/26 05:11:17;;;;;;;14.02;10.55;;;10.80;99.90;;;;;;5125040;27;20035;-32
2022/09/26 05:13:43;;;;;;;11.73;10.52;;;10.80;99.90;;;;;;5123848;27;20557;-33
2022/09/26 05:16:10;;;;;;;12.18;9.50;;;10.80;99.90;;;;;;5123365;27;20032;-33
2022/09/26 05:18:38;;;;;;;11.60;10.40;;;10.80;99.90;;;;;;5119874;27;20437;-33
2022/09/26 05:21:05;;;;;;;11.52;9.55;;;10.80;99.90;;;;;;5120207;27;20394;-35
2022/09/26 05:26:18;;;;;;;9.82;8.25;;;10.80;99.90;;;;;;5121270;27;20073;-33
2022/09/26 05:28:50;;;;;;;10.13;8.80;;;10.80;99.90;;;;;;5128539;27;20043;-32
2022/09/26 05:31:16;;;;;;;15.35;10.10;;;10.80;99.90;;;;;;5126590;27;20037;-33
2022/09/26 05:33:43;;;;;;;10.45;9.35;;;10.80;99.90;;;;;;5104637;27;20039;-32
2022/09/26 05:36:09;;;;;;;10.32;9.18;;;10.80;99.90;;;;;;5107325;27;20046;-32
2022/09/26 05:38:35;;;;;;;10.55;9.40;;;10.80;99.90;;;;;;5131562;27;20047;-34
2022/09/26 05:41:01;;;;;;;11.35;9.18;;;10.80;99.90;;;;;;5129299;27;20067;-34
2022/09/26 05:43:29;;;;;;;12.70;9.23;;;10.80;99.90;;;;;;5118014;27;20507;-34
2022/09/26 05:46:06;;;;;;;10.10;8.27;;;10.80;99.90;;;;;;5136196;27;20043;-33
2022/09/26 05:48:34;;;;;;;10.48;8.88;;;10.80;99.90;;;;;;5127259;27;20031;-32
2022/09/26 05:51:12;;;;;;;10.57;8.02;;;10.70;99.90;;;;;;5138270;27;20035;-32
2022/09/26 05:53:39;;;;;;;10.40;8.25;;;10.80;99.90;;;;;;5137308;27;20035;-34
2022/09/26 05:56:06;;;;;;;10.57;8.75;;;10.70;99.90;;;;;;5140511;27;20031;-34
2022/09/26 05:58:35;;;;;;;9.52;8.07;;;10.70;99.90;;;;;;5139265;27;20516;-32
2022/09/26 06:01:21;;;;;;;9.43;7.70;;;10.80;99.90;;;;;;5136162;27;20047;-33
2022/09/26 06:03:47;;;;;;;9.45;7.78;;;10.80;99.90;;;;;;5145218;27;20134;-32
2022/09/26 06:06:17;;;;;;;9.70;8.00;;;10.80;99.90;;;;;;5126194;27;20118;-33
2022/09/26 06:08:44;;;;;;;9.77;7.68;;;10.80;99.90;;;;;;5131116;27;20488;-36
2022/09/26 06:11:13;;;;;;;9.32;7.22;;;10.80;99.90;;;;;;5132796;27;20131;-32
2022/09/26 06:13:42;;;;;;;10.18;7.40;;;10.80;99.90;;;;;;5132157;27;20039;-32
2022/09/26 06:16:12;;;;;;;11.05;7.28;;;10.80;99.90;;;;;;5139102;27;20027;-32
2022/09/26 06:18:38;;;;;;;10.65;7.22;;;10.70;99.90;;;;;;5132100;27;20288;-34
2022/09/26 06:21:06;;;;;;;8.15;6.47;;;10.70;99.90;;;;;;5145890;27;20030;-33
2022/09/26 06:23:35;;;;;;;8.80;7.35;;;10.70;99.90;;;;;;5134187;27;20150;-34
2022/09/26 06:26:03;;;;;;;8.70;7.55;;;10.70;99.90;;;;;;5133701;27;20038;-32
2022/09/26 06:28:29;;;;;;;7.70;6.60;;;10.70;99.90;;;;;;5134990;27;20099;-34
2022/09/26 06:30:56;;;;;;;10.23;7.22;;;10.70;99.90;;;;;;5138935;27;20130;-33
2022/09/26 06:33:22;;;;;;;7.63;6.82;;;10.70;99.90;;;;;;5140160;27;20503;-32
2022/09/26 06:36:02;;;;;;;7.18;6.47;;;10.70;99.90;;;;;;5136657;27;20117;-33
2022/09/26 06:38:29;;;;;;;8.40;6.63;;;10.70;99.90;;;;;;5139153;27;20039;-32
2022/09/26 06:40:55;;;;;;;7.65;6.22;;;10.80;99.90;;;;;;5136558;27;20518;-32
2022/09/26 06:43:21;;;;;;;8.10;5.95;;;10.70;99.90;;;;;;5131013;27;20027;-32
2022/09/26 06:45:50;;;;;;;8.45;6.25;;;10.80;99.90;;;;;;5143303;27;20041;-33
2022/09/26 06:48:17;;;;;;;8.00;5.63;;;10.80;99.90;;;;;;5139070;27;20065;-31
2022/09/26 06:50:43;;;;;;;7.82;5.93;;;10.80;99.90;;;;;;5143264;27;20037;-34
2022/09/26 06:53:09;;;;;;;6.45;5.57;;;10.80;99.90;;;;;;5138519;27;20031;-33
2022/09/26 06:55:35;;;;;;;7.78;6.38;;;10.90;99.90;;;;;;5143853;27;20045;-32
2022/09/26 06:58:01;;;;;;;8.18;5.38;;;10.90;99.90;;;;;;5145530;27;20027;-36
2022/09/26 07:00:30;;;;;;;6.32;5.72;;;10.90;99.90;;;;;;5126795;27;20038;-32
2022/09/26 07:02:55;;;;;;;7.78;6.00;;;10.90;99.90;;;;;;5124545;27;20035;-33
2022/09/26 07:05:23;;;;;;;6.78;5.22;;;11.00;99.90;;;;;;5119301;27;20050;-33
2022/09/26 07:07:49;;;;;;;7.07;5.30;;;11.00;99.90;;;;;;5128328;27;20440;-33
2022/09/26 07:10:17;;;;;;;6.93;5.18;;;11.00;99.90;;;;;;5140688;27;20045;-33
2022/09/26 07:12:47;;;;;;;5.78;5.18;;;11.00;99.90;;;;;;5126846;27;20046;-31
2022/09/26 07:15:15;;;;;;;8.65;4.97;;;11.10;99.90;;;;;;5143163;27;20411;-33
2022/09/26 07:17:43;;;;;;;5.20;4.55;;;11.10;99.90;;;;;;5123267;27;20039;-33
2022/09/26 07:20:15;;;;;;;7.18;4.40;;;11.10;99.90;;;;;;5122911;27;20106;-33
2022/09/26 07:22:42;;;;;;;7.55;4.22;;;11.10;99.90;;;;;;5128145;27;20030;-32
2022/09/26 07:25:09;;;;;;;8.38;4.93;;;11.10;99.90;;;;;;5113892;27;20066;-34
2022/09/26 07:27:36;;;;;;;5.03;4.53;;;11.10;99.90;;;;;;5122136;27;20034;-33
2022/09/26 07:30:03;;;;;;;7.53;4.78;;;11.10;99.90;;;;;;5125560;27;20047;-32
2022/09/26 07:32:32;;;;;;;7.68;5.13;;;11.10;99.90;;;;;;5124793;27;20488;-32
2022/09/26 07:34:58;;;;;;;5.80;5.20;;;11.10;99.90;;;;;;5123045;27;20050;-33
2022/09/26 07:37:25;;;;;;;5.95;4.68;;;11.10;99.90;;;;;;5130524;27;20036;-34
2022/09/26 07:39:50;;;;;;;7.80;5.30;;;11.10;99.90;;;;;;5127879;27;20485;-32
2022/09/26 07:42:17;;;;;;;9.13;5.15;;;11.10;99.90;;;;;;5124369;27;20031;-35
2022/09/26 07:44:43;;;;;;;5.78;4.70;;;11.10;99.90;;;;;;5134202;27;20038;-33
2022/09/26 07:50:14;;;;;;;6.32;5.13;;;11.00;99.90;;;;;;5121842;27;20104;-32
2022/09/26 07:52:42;;;;;;;6.50;4.63;;;11.00;99.90;;;;;;5132125;27;20039;-33
2022/09/26 07:55:11;;;;;;;9.00;5.20;;;11.00;99.90;;;;;;5135822;27;20043;-32
2022/09/26 07:57:37;;;;;;;7.57;5.45;;;11.00;99.90;;;;;;5129606;27;20460;-32
2022/09/26 08:00:05;;;;;;;8.27;5.95;;;11.00;99.90;;;;;;5119893;27;20071;-32
2022/09/26 08:02:33;;;;;;;7.47;5.82;;;11.00;99.90;;;;;;5131129;27;20038;-32
2022/09/26 08:05:03;;;;;;;6.28;5.38;;;11.00;99.90;;;;;;5132467;27;20110;-31
2022/09/26 08:07:30;;;;;;;10.55;6.32;;;11.00;99.90;;;;;;5130549;27;20036;-32
2022/09/26 08:09:57;;;;;;;7.53;5.90;;;11.00;99.90;;;;;;5126682;27;20035;-32
2022/09/26 08:12:25;;;;;;;8.13;6.03;;;11.00;99.90;;;;;;5134220;27;20065;-33
2022/09/26 08:14:51;;;;;;;10.35;5.75;;;11.00;99.90;;;;;;5136590;27;20096;-33
2022/09/26 08:17:19;;;;;;;7.25;5.97;;;11.00;99.90;;;;;;5119759;27;20148;-33
2022/09/26 08:19:45;;;;;;;6.05;5.35;;;11.10;99.90;;;;;;5114638;27;20096;-33
2022/09/26 08:22:11;;;;;;;9.07;6.45;;;11.20;99.90;;;;;;5139792;27;20031;-29
2022/09/26 08:24:38;;;;;;;6.63;5.53;;;11.30;99.90;;;;;;5139143;27;20431;-30
2022/09/26 08:27:05;;;;;;;9.10;5.28;;;11.40;99.90;;;;;;5155849;27;20034;-29
2022/09/26 08:29:31;;;;;;;8.48;5.35;;;11.50;99.90;;;;;;5155196;27;20035;-30
2022/09/26 08:31:57;;;;;;;6.85;4.78;;;11.60;99.90;;;;;;5155083;27;20035;-30
2022/09/26 08:34:23;;;;;;;7.55;5.03;;;11.60;99.90;;;;;;5155118;27;20035;-30
2022/09/26 08:36:52;;;;;;;9.63;5.18;;;11.70;99.90;;;;;;5155190;27;20034;-29
2022/09/26 08:39:18;;;;;;;9.85;4.53;;;11.70;99.90;;;;;;5142938;27;20041;-30
2022/09/26 08:42:08;;;;;;;6.28;4.85;;;11.70;99.90;;;;;;5133865;27;20035;-30
2022/09/26 08:44:38;;;;;;;7.70;4.90;;;11.80;99.90;;;;;;5134590;27;20039;-29
2022/09/26 08:47:31;;;;;;;4.85;4.30;;;11.80;99.90;;;;;;5151175;27;20035;-30
2022/09/26 08:50:13;;;;;;;6.75;4.78;;;11.80;99.90;;;;;;5155046;27;20045;-30
2022/09/26 08:52:42;;;;;;;6.43;4.45;;;11.80;99.90;;;;;;5155298;27;20494;-30
2022/09/26 08:55:19;;;;;;;6.57;4.43;;;11.80;99.90;;;;;;5146594;27;20481;-30
2022/09/26 09:00:20;;;;;;;5.72;4.50;;;11.80;99.90;;;;;;5180954;22;20059;-83
2022/09/26 09:02:54;;;;;;;6.20;4.50;;;11.80;99.90;;;;;;5069529;28;20036;-85
2022/09/26 09:05:27;;;;;;;6.32;4.32;;;11.90;99.90;;;;;;5068593;28;20139;-82
2022/09/26 09:07:56;;;;;;;6.53;4.85;;;11.90;99.90;;;;;;5056913;28;20438;-83
2022/09/26 09:10:38;;;;;;;6.63;4.57;;;11.90;99.90;;;;;;5075548;28;20052;-83
2022/09/26 09:13:12;;;;;;;6.28;4.22;;;12.00;99.90;;;;;;5076850;28;20044;-83
2022/09/26 09:15:56;;;;;;;8.98;4.57;;;12.00;99.90;;;;;;5074191;28;20040;-83
2022/09/26 09:18:40;;;;;;;5.72;4.13;;;12.10;99.90;;;;;;5076277;28;20040;-83
2022/09/26 09:21:28;;;;;;;6.97;4.57;;;12.10;99.90;;;;;;5068712;28;20559;-84
2022/09/26 09:24:22;;;;;;;5.28;4.10;;;12.20;99.90;;;;;;5068160;28;20044;-84
2022/09/26 09:27:29;;;;;;;6.93;4.47;;;12.20;99.90;;;;;;5056550;28;20046;-84
2022/09/26 09:30:19;;;;;;;7.90;4.63;;;12.30;99.90;;;;;;5050606;28;20036;-84
2022/09/26 09:32:54;;;;;;;8.43;5.05;;;12.30;99.90;;;;;;5056219;28;20051;-82
2022/09/26 09:35:33;;;;;;;7.22;4.50;;;12.30;99.90;;;;;;5055738;28;20036;-84
2022/09/26 09:38:00;;;;;;;6.32;4.90;;;12.30;99.90;;;;;;5068098;28;20051;-84
2022/09/26 09:40:32;;;;;;;6.45;4.53;;;12.30;99.90;;;;;;5074496;28;20043;-84
2022/09/26 09:43:06;;;;;;;7.80;5.18;;;12.20;99.90;;;;;;5082564;28;20052;-85
2022/09/26 09:45:49;;;;;;;7.40;5.35;;;12.10;99.90;;;;;;5077384;28;20059;-84
2022/09/26 09:48:15;;;;;;;5.85;4.93;;;12.20;99.90;;;;;;5072029;28;20036;-79
2022/09/26 09:50:43;;;;;;;6.35;4.60;;;12.10;99.90;;;;;;5072534;28;20037;-83
2022/09/26 09:53:12;;;;;;;8.20;5.00;;;12.10;99.90;;;;;;5058846;28;20082;-84
2022/09/26 09:55:53;;;;;;;7.55;5.00;;;12.10;99.90;;;;;;5072580;28;20115;-83
2022/09/26 09:58:40;;;;;;;7.13;4.65;;;12.10;99.90;;;;;;5063005;28;20084;-83
2022/09/26 10:01:14;;;;;;;8.20;5.03;;;12.10;99.90;;;;;;5061087;28;20039;-83
2022/09/26 10:04:03;;;;;;;7.13;5.47;;;12.10;99.90;;;;;;5095555;28;20499;-84
2022/09/26 10:06:34;;;;;;;10.18;5.32;;;12.10;99.90;;;;;;5077358;28;20135;-84
2022/09/26 10:09:26;;;;;;;7.05;5.18;;;12.10;99.90;;;;;;5087924;28;20040;-83
2022/09/26 10:11:53;;;;;;;7.90;4.85;;;12.10;99.90;;;;;;5076679;28;20044;-84
2022/09/26 10:15:01;;;;;;;9.13;5.10;;;12.00;99.90;;;;;;5080636;28;20052;-84
2022/09/26 10:17:27;;;;;;;5.05;4.38;;;12.10;99.90;;;;;;5076197;28;20059;-83
2022/09/26 10:19:53;;;;;;;8.00;5.38;;;12.00;99.90;;;;;;5060409;28;20047;-84
2022/09/26 10:22:31;;;;;;;10.05;5.43;;;12.00;99.90;;;;;;5087749;28;20435;-85
2022/09/26 10:25:07;;;;;;;6.90;5.63;;;12.00;99.90;;;;;;5061469;28;20071;-83
2022/09/26 10:27:45;;;;;;;6.32;5.20;;;12.00;99.90;;;;;;5058350;28;20050;-83
2022/09/26 10:30:17;;;;;;;6.93;6.15;;;12.00;99.90;;;;;;5088027;28;20896;-83
2022/09/26 10:32:46;;;;;;;6.03;5.28;;;12.00;99.90;;;;;;5071973;28;20059;-83
2022/09/26 10:35:23;;;;;;;8.13;5.45;;;12.00;99.90;;;;;;5061392;28;20077;-83
2022/09/26 10:38:02;;;;;;;7.82;5.63;;;12.10;99.90;;;;;;5073851;28;20087;-83
2022/09/26 10:40:47;;;;;;;9.32;5.90;;;12.10;99.90;;;;;;5081042;28;20071;-82
2022/09/26 10:43:21;;;;;;;6.55;5.53;;;12.20;99.90;;;;;;5081287;28;20123;-83
2022/09/26 10:45:53;;;;;;;7.05;5.43;;;12.20;99.90;;;;;;5082776;28;20040;-83
2022/09/26 10:48:23;;;;;;;9.48;5.95;;;12.20;99.90;;;;;;5066263;28;20106;-82
2022/09/26 10:50:59;;;;;;;7.50;5.65;;;12.20;99.90;;;;;;5074141;28;20492;-82
2022/09/26 10:53:26;;;;;;;7.97;5.70;;;12.20;99.90;;;;;;5072455;28;20048;-83
2022/09/26 10:55:57;;;;;;;6.15;5.53;;;12.30;99.90;;;;;;5065163;28;20028;-82
2022/09/26 10:58:28;;;;;;;6.72;5.03;;;12.30;99.90;;;;;;5065208;28;20094;-83
2022/09/26 11:00:56;;;;;;;6.68;4.57;;;12.30;99.90;;;;;;5062319;28;20557;-83
2022/09/26 11:03:42;;;;;;;9.15;5.80;;;12.30;99.90;;;;;;5054330;28;20036;-83
2022/09/26 11:06:26;;;;;;;6.28;5.38;;;12.20;99.90;;;;;;5087901;28;20504;-81
2022/09/26 11:08:57;;;;;;;8.93;5.60;;;12.20;99.90;;;;;;5087484;28;20627;-82
2022/09/26 11:11:23;;;;;;;10.68;5.38;;;12.10;99.90;;;;;;5074473;28;20047;-83
2022/09/26 11:13:57;;;;;;;6.50;5.90;;;12.10;99.90;;;;;;5080423;28;20082;-83
2022/09/26 11:16:23;;;;;;;11.40;6.25;;;12.10;99.90;;;;;;5071305;28;20036;-83
2022/09/26 11:19:12;;;;;;;7.13;6.25;;;12.00;99.90;;;;;;5076309;28;20071;-82
2022/09/26 11:21:55;;;;;;;7.95;6.50;;;12.00;99.90;;;;;;5073217;28;20032;-83
2022/09/26 11:24:41;;;;;;;7.22;6.07;;;12.00;99.90;;;;;;5085058;28;20040;-83
2022/09/26 11:27:44;;;;;;;7.75;6.97;;;12.00;99.90;;;;;;5058067;28;20041;-85
2022/09/26 11:30:18;;;;;;;8.32;6.82;;;12.00;99.90;;;;;;5059460;28;20048;-83
2022/09/26 11:32:48;;;;;;;6.82;6.22;;;12.00;99.90;;;;;;5073159;28;20117;-82
2022/09/26 11:35:42;;;;;;;6.72;6.13;;;12.00;99.90;;;;;;5051459;28;20113;-83
2022/09/26 11:38:37;;;;;;;7.65;6.80;;;12.00;99.90;;;;;;5080540;28;20237;-83
2022/09/26 11:41:37;;;;;;;8.00;6.72;;;12.00;99.90;;;;;;5058916;28;20388;-83
2022/09/26 11:44:29;;;;;;;9.40;7.25;;;12.00;99.90;;;;;;5054950;28;20051;-83
2022/09/26 11:47:39;;;;;;;9.38;6.68;;;12.00;99.90;;;;;;5076359;28;20066;-80
2022/09/26 11:50:35;;;;;;;8.07;6.53;;;12.10;99.90;;;;;;5030091;28;20044;-83
2022/09/26 11:53:25;;;;;;;8.25;6.72;;;12.10;99.90;;;;;;5044260;28;20048;-84
2022/09/26 11:56:29;;;;;;;10.15;7.63;;;12.10;99.90;;;;;;5048433;28;20040;-84
2022/09/26 11:59:06;;;;;;;8.00;7.30;;;12.10;99.90;;;;;;4998160;28;20139;-82
2022/09/26 12:01:58;;;;;;;10.68;6.60;;;12.10;99.90;;;;;;5054020;28;20048;-83
2022/09/26 12:04:46;;;;;;;10.40;7.20;;;12.10;99.90;;;;;;5057997;28;20132;-84
2022/09/26 12:07:20;;;;;;;7.72;7.10;;;12.20;99.90;;;;;;5079439;28;20044;-83
2022/09/26 12:10:33;;;;;;;7.38;6.63;;;12.20;99.90;;;;;;5085210;28;20043;-83
2022/09/26 12:13:17;;;;;;;7.10;6.40;;;12.20;99.90;;;;;;5026331;28;20044;-84
2022/09/26 12:15:58;;;;;;;5.95;5.45;;;12.20;99.90;;;;;;5062601;28;20028;-83
2022/09/26 12:18:44;;;;;;;6.35;5.68;;;12.20;99.90;;;;;;5075735;28;20583;-84
2022/09/26 12:22:27;;;;;;;7.75;6.32;;;12.20;99.90;;;;;;5054209;28;20063;-83
2022/09/26 12:24:37;;;;;;;6.60;4.90;;;12.30;99.90;;;;;;5078261;28;20040;-83
2022/09/26 12:27:28;;;;;;;5.50;4.82;;;12.20;99.90;;;;;;5078901;28;20085;-83
2022/09/26 12:30:09;;;;;;;5.47;4.97;;;12.20;99.90;;;;;;5075629;28;20040;-82
2022/09/26 12:32:56;;;;;;;5.18;4.47;;;12.20;99.90;;;;;;5072463;28;20082;-83
2022/09/26 12:35:46;;;;;;;5.97;4.30;;;12.20;99.90;;;;;;5075491;28;20548;-81
2022/09/26 12:38:40;;;;;;;5.40;4.90;;;12.20;99.90;;;;;;5078314;28;20129;-83
2022/09/26 12:41:21;;;;;;;5.38;4.13;;;12.20;99.90;;;;;;5062138;28;20043;-83
2022/09/26 12:44:06;;;;;;;4.88;4.47;;;12.20;99.90;;;;;;5074299;28;20059;-84
2022/09/26 12:46:46;;;;;;;6.20;4.53;;;12.20;99.90;;;;;;5057335;28;20040;-83
2022/09/26 12:49:26;;;;;;;4.68;4.28;;;12.20;99.90;;;;;;5087135;28;20492;-85
2022/09/26 12:52:20;;;;;;;5.00;4.50;;;12.20;99.90;;;;;;5062140;28;20047;-83
2022/09/26 12:55:30;;;;;;;3.80;3.50;;;12.20;99.90;;;;;;5078188;28;20097;-84
2022/09/26 12:58:11;;;;;;;5.07;4.00;;;12.20;99.90;;;;;;5069955;28;20123;-84
2022/09/26 13:00:54;;;;;;;4.60;3.97;;;12.30;99.90;;;;;;5064898;28;20480;-85
2022/09/26 13:03:44;;;;;;;4.20;3.88;;;12.20;99.90;;;;;;5070397;28;20082;-85
2022/09/26 13:06:22;;;;;;;3.97;3.67;;;12.20;99.90;;;;;;5014357;28;20047;-83
2022/09/26 13:09:00;;;;;;;5.63;4.07;;;12.20;99.90;;;;;;5068965;28;20035;-83
2022/09/26 13:12:02;;;;;;;4.60;4.20;;;12.20;99.90;;;;;;5054118;28;20032;-83
2022/09/26 13:14:46;;;;;;;5.20;4.38;;;12.20;99.90;;;;;;5017515;28;20051;-84
2022/09/26 13:17:23;;;;;;;3.97;3.67;;;12.20;99.90;;;;;;5076104;28;20048;-83
2022/09/26 13:19:59;;;;;;;4.03;3.58;;;12.20;99.90;;;;;;5076258;28;20147;-84
2022/09/26 13:22:43;;;;;;;4.82;4.35;;;12.20;99.90;;;;;;5077665;28;20079;-83
2022/09/26 13:25:19;;;;;;;4.20;3.80;;;12.20;99.90;;;;;;5071505;28;20039;-84
2022/09/26 13:28:30;;;;;;;4.55;4.20;;;12.20;99.90;;;;;;5073391;28;20047;-84
2022/09/26 13:31:01;;;;;;;5.25;3.90;;;12.20;99.90;;;;;;5077428;28;20044;-84